Time;durP1;ratioP1;P1;durP2;ratioP2;P2;SDS_P1;SDS_P2;PMS_P1;PMS_P2;Temp;Humidity;BMP_temperature;BMP_pressure;BME280_temperature;BME280_humidity;BME280_pressure;Samples;Min_cycle;Max_cycle;Signal;HPM_P1;HPM_P2
2021/03/30 00:01:23;;;;;;;7.45;2.60;;;13.40;58.20;;;;;;5096735;28;20462;-72
2021/03/30 00:03:49;;;;;;;7.35;2.88;;;13.40;58.30;;;;;;5096370;28;20101;-72
2021/03/30 00:06:15;;;;;;;7.28;3.00;;;13.40;58.10;;;;;;5096869;28;20052;-72
2021/03/30 00:08:41;;;;;;;8.02;3.40;;;13.40;58.20;;;;;;5097108;28;20048;-72
2021/03/30 00:11:07;;;;;;;5.43;2.67;;;13.40;58.10;;;;;;5097043;28;20048;-72
2021/03/30 00:13:33;;;;;;;10.20;3.13;;;13.40;58.40;;;;;;5096584;28;20036;-72
2021/03/30 00:15:59;;;;;;;9.35;3.08;;;13.40;58.30;;;;;;5096324;28;20085;-72
2021/03/30 00:18:26;;;;;;;6.53;2.70;;;13.40;58.50;;;;;;5096945;28;20043;-72
2021/03/30 00:20:52;;;;;;;8.35;2.53;;;13.30;58.40;;;;;;5096746;28;20043;-72
2021/03/30 00:23:18;;;;;;;6.03;2.67;;;13.30;58.50;;;;;;5096130;28;20036;-71
2021/03/30 00:25:44;;;;;;;8.38;2.95;;;13.30;58.70;;;;;;5097230;28;20074;-71
2021/03/30 00:28:10;;;;;;;8.00;2.92;;;13.30;58.60;;;;;;5096086;28;20060;-71
2021/03/30 00:30:36;;;;;;;9.85;3.03;;;13.30;58.50;;;;;;5096943;28;20048;-71
2021/03/30 00:33:03;;;;;;;7.32;2.33;;;13.30;58.30;;;;;;5096873;28;20123;-71
2021/03/30 00:35:29;;;;;;;5.90;2.67;;;13.30;58.70;;;;;;5096835;28;20043;-71
2021/03/30 00:37:54;;;;;;;8.13;2.70;;;13.20;58.60;;;;;;5095960;28;20036;-72
2021/03/30 00:40:20;;;;;;;7.80;3.15;;;13.30;58.50;;;;;;5096150;28;20145;-71
2021/03/30 00:42:52;;;;;;;7.47;2.33;;;13.30;58.60;;;;;;5096147;28;20044;-71
2021/03/30 00:45:18;;;;;;;6.00;2.70;;;13.30;58.80;;;;;;5096215;28;20059;-71
2021/03/30 00:47:46;;;;;;;9.95;2.60;;;13.30;58.90;;;;;;5095487;28;20036;-71
2021/03/30 00:50:16;;;;;;;8.85;2.58;;;13.30;58.80;;;;;;5096835;28;20050;-70
2021/03/30 00:52:43;;;;;;;7.55;2.85;;;13.30;58.60;;;;;;5095484;28;20067;-71
2021/03/30 00:55:10;;;;;;;6.10;2.58;;;13.20;58.80;;;;;;5095414;28;20048;-71
2021/03/30 00:57:37;;;;;;;13.00;3.63;;;13.20;58.80;;;;;;5095692;28;20393;-71
2021/03/30 01:00:13;;;;;;;11.38;3.47;;;13.20;59.00;;;;;;5095684;28;20346;-71
2021/03/30 01:02:39;;;;;;;13.13;2.92;;;13.20;59.10;;;;;;5095690;28;20105;-71
2021/03/30 01:05:07;;;;;;;10.02;3.17;;;13.20;59.20;;;;;;5095542;28;20043;-72
2021/03/30 01:07:36;;;;;;;9.85;3.15;;;13.20;59.30;;;;;;5095671;28;20048;-71
2021/03/30 01:10:29;;;;;;;7.30;3.00;;;13.10;59.00;;;;;;5095433;28;20040;-71
2021/03/30 01:13:39;;;;;;;10.98;3.67;;;13.20;59.20;;;;;;5095956;28;20098;-71
2021/03/30 01:16:14;;;;;;;9.45;2.90;;;13.10;58.60;;;;;;5094828;28;20040;-71
2021/03/30 01:18:43;;;;;;;6.82;2.78;;;13.10;59.60;;;;;;5095994;28;20043;-70
2021/03/30 01:21:52;;;;;;;9.85;3.20;;;13.10;59.30;;;;;;5095396;28;20127;-71
2021/03/30 01:24:46;;;;;;;10.73;3.17;;;13.00;58.80;;;;;;5096046;28;20044;-71
2021/03/30 01:27:52;;;;;;;8.80;2.67;;;13.00;59.10;;;;;;5095533;28;20131;-71
2021/03/30 01:30:21;;;;;;;9.30;3.35;;;13.00;59.60;;;;;;5095416;28;20104;-70
2021/03/30 01:33:15;;;;;;;10.80;3.40;;;13.10;59.50;;;;;;5095628;28;20446;-71
2021/03/30 01:35:42;;;;;;;11.98;3.47;;;13.00;58.90;;;;;;5092750;28;20429;-71
2021/03/30 01:38:12;;;;;;;9.65;3.40;;;13.00;59.40;;;;;;5095369;28;20101;-71
2021/03/30 01:40:39;;;;;;;9.23;3.20;;;13.00;59.60;;;;;;5095126;28;20039;-71
2021/03/30 01:43:06;;;;;;;9.75;3.15;;;13.00;59.40;;;;;;5095086;28;20044;-71
2021/03/30 01:45:34;;;;;;;9.90;3.00;;;13.00;59.50;;;;;;5094981;28;20101;-71
2021/03/30 01:48:02;;;;;;;8.60;2.80;;;13.00;59.80;;;;;;5094939;28;20056;-71
2021/03/30 01:50:28;;;;;;;10.32;3.13;;;12.90;59.90;;;;;;5095597;28;20043;-71
2021/03/30 01:52:57;;;;;;;8.77;2.70;;;12.90;59.90;;;;;;5095595;28;20044;-71
2021/03/30 01:55:24;;;;;;;7.90;2.80;;;13.00;59.70;;;;;;5095243;28;20036;-71
2021/03/30 01:57:55;;;;;;;10.00;3.10;;;13.00;59.70;;;;;;5095315;28;20168;-71
2021/03/30 02:00:29;;;;;;;7.35;2.80;;;13.00;59.70;;;;;;5095051;28;20106;-71
2021/03/30 02:02:56;;;;;;;9.00;3.00;;;12.90;60.10;;;;;;5095241;28;20123;-71
2021/03/30 02:05:24;;;;;;;9.07;2.85;;;12.90;60.10;;;;;;5095154;28;20062;-71
2021/03/30 02:07:53;;;;;;;8.90;3.00;;;12.90;60.00;;;;;;5095199;28;20059;-71
2021/03/30 02:10:32;;;;;;;11.70;3.22;;;12.90;60.20;;;;;;5095164;28;20330;-71
2021/03/30 02:13:00;;;;;;;12.27;4.00;;;12.90;60.30;;;;;;5094829;28;20355;-70
2021/03/30 02:15:29;;;;;;;9.80;3.33;;;12.90;60.40;;;;;;5095157;28;20055;-71
2021/03/30 02:18:07;;;;;;;7.43;3.45;;;12.80;60.30;;;;;;5094665;28;20073;-71
2021/03/30 02:20:42;;;;;;;9.68;3.53;;;12.90;60.30;;;;;;5095346;28;20047;-71
2021/03/30 02:23:19;;;;;;;9.65;2.60;;;12.90;60.40;;;;;;5095263;28;20085;-71
2021/03/30 02:25:52;;;;;;;10.02;3.33;;;12.80;60.50;;;;;;5095016;28;20055;-71
2021/03/30 02:28:24;;;;;;;12.60;3.85;;;12.80;60.50;;;;;;5098030;28;20359;-71
2021/03/30 02:30:51;;;;;;;7.95;3.13;;;12.80;60.80;;;;;;5098743;28;20032;-71
2021/03/30 02:33:21;;;;;;;11.85;3.20;;;12.80;60.90;;;;;;5098647;28;20044;-71
2021/03/30 02:35:57;;;;;;;9.07;2.92;;;12.80;60.80;;;;;;5099049;28;20119;-71
2021/03/30 02:38:24;;;;;;;10.45;3.50;;;12.80;60.90;;;;;;5078477;28;20037;-71
2021/03/30 02:40:51;;;;;;;13.20;4.13;;;12.70;61.00;;;;;;5078285;28;20207;-71
2021/03/30 02:43:19;;;;;;;10.25;3.60;;;12.70;61.00;;;;;;5078477;28;20036;-71
2021/03/30 02:45:49;;;;;;;6.97;2.85;;;12.70;61.30;;;;;;5090222;28;20064;-71
2021/03/30 02:48:15;;;;;;;7.30;3.20;;;12.80;61.20;;;;;;5098911;28;20044;-71
2021/03/30 02:50:42;;;;;;;9.45;3.58;;;12.70;61.40;;;;;;5098549;28;20036;-71
2021/03/30 02:53:08;;;;;;;15.10;4.10;;;12.70;61.10;;;;;;5098645;28;20067;-71
2021/03/30 02:55:36;;;;;;;8.23;2.92;;;12.70;61.00;;;;;;5098256;28;20078;-71
2021/03/30 02:58:04;;;;;;;14.18;3.70;;;12.70;61.20;;;;;;5098246;28;20133;-71
2021/03/30 03:00:31;;;;;;;10.95;3.28;;;12.70;61.10;;;;;;5098320;28;20047;-71
2021/03/30 03:02:57;;;;;;;7.53;3.50;;;12.60;61.40;;;;;;5098108;28;20047;-71
2021/03/30 03:05:23;;;;;;;11.25;4.25;;;12.70;61.20;;;;;;5097899;28;20446;-71
2021/03/30 03:07:50;;;;;;;10.27;4.07;;;12.70;61.10;;;;;;5098254;28;20435;-70
2021/03/30 03:10:17;;;;;;;7.57;2.88;;;12.70;61.00;;;;;;5098745;28;20094;-72
2021/03/30 03:12:43;;;;;;;8.20;3.22;;;12.60;61.00;;;;;;5097517;28;20039;-71
2021/03/30 03:15:13;;;;;;;12.07;3.15;;;12.60;61.10;;;;;;5098036;28;20063;-71
2021/03/30 03:17:41;;;;;;;12.05;3.63;;;12.60;61.40;;;;;;5097444;28;20094;-71
2021/03/30 03:20:08;;;;;;;10.98;3.42;;;12.60;61.30;;;;;;5097927;28;20115;-71
2021/03/30 03:22:35;;;;;;;11.15;3.13;;;12.60;61.20;;;;;;5097135;28;20070;-71
2021/03/30 03:25:02;;;;;;;11.85;3.10;;;12.60;61.00;;;;;;5097622;28;20044;-71
2021/03/30 03:27:29;;;;;;;10.45;3.20;;;12.60;60.80;;;;;;5097771;28;20036;-71
2021/03/30 03:29:56;;;;;;;11.77;3.90;;;12.60;60.90;;;;;;5097926;28;20127;-71
2021/03/30 03:32:23;;;;;;;9.98;3.47;;;12.70;60.80;;;;;;5097295;28;20170;-71
2021/03/30 03:34:49;;;;;;;12.60;3.38;;;12.70;60.90;;;;;;5098202;28;20036;-71
2021/03/30 03:37:15;;;;;;;9.40;3.45;;;12.60;60.70;;;;;;5097397;28;20047;-71
2021/03/30 03:39:41;;;;;;;10.75;4.00;;;12.70;60.90;;;;;;5097637;28;20043;-71
2021/03/30 03:42:07;;;;;;;11.40;3.13;;;12.70;60.80;;;;;;5097775;28;20056;-71
2021/03/30 03:44:33;;;;;;;9.95;3.47;;;12.60;60.60;;;;;;5096817;28;20060;-71
2021/03/30 03:46:59;;;;;;;10.00;3.20;;;12.60;60.90;;;;;;5097152;28;20332;-71
2021/03/30 03:49:26;;;;;;;9.73;3.55;;;12.70;60.70;;;;;;5097685;28;20040;-71
2021/03/30 03:51:59;;;;;;;9.70;3.03;;;12.70;60.70;;;;;;5097488;28;20346;-71
2021/03/30 03:54:27;;;;;;;9.77;3.45;;;12.70;61.00;;;;;;5096880;28;20109;-71
2021/03/30 03:56:58;;;;;;;14.63;4.00;;;12.70;60.90;;;;;;5097392;28;20323;-71
2021/03/30 03:59:29;;;;;;;10.10;3.33;;;12.70;60.80;;;;;;5097479;28;20071;-71
2021/03/30 04:02:16;;;;;;;9.30;3.53;;;12.60;60.70;;;;;;5096757;28;20047;-70
2021/03/30 04:04:54;;;;;;;11.18;3.58;;;12.60;60.30;;;;;;5096677;28;20036;-71
2021/03/30 04:07:22;;;;;;;11.77;4.25;;;12.60;60.70;;;;;;5096535;28;20440;-70
2021/03/30 04:09:52;;;;;;;9.48;3.53;;;12.60;60.90;;;;;;5097214;28;20044;-71
2021/03/30 04:12:20;;;;;;;11.75;3.88;;;12.60;60.90;;;;;;5096443;28;20355;-71
2021/03/30 04:14:47;;;;;;;12.65;4.05;;;12.60;60.90;;;;;;5096940;28;20117;-71
2021/03/30 04:17:15;;;;;;;8.38;3.33;;;12.50;61.00;;;;;;5095804;28;20332;-71
2021/03/30 04:19:41;;;;;;;12.95;3.78;;;12.60;61.10;;;;;;5096407;28;20051;-71
2021/03/30 04:22:07;;;;;;;11.38;4.22;;;12.60;61.30;;;;;;5096702;28;20055;-71
2021/03/30 04:24:33;;;;;;;12.68;3.75;;;12.50;60.90;;;;;;5096666;28;20393;-71
2021/03/30 04:26:58;;;;;;;10.55;4.05;;;12.50;61.00;;;;;;5096110;28;20051;-71
2021/03/30 04:29:24;;;;;;;10.90;3.92;;;12.50;61.00;;;;;;5097311;28;20036;-71
2021/03/30 04:31:50;;;;;;;13.18;3.78;;;12.50;61.40;;;;;;5096105;28;20105;-70
2021/03/30 04:34:16;;;;;;;11.60;3.80;;;12.50;61.60;;;;;;5096120;28;20366;-71
2021/03/30 04:36:42;;;;;;;7.65;4.03;;;12.50;61.50;;;;;;5095332;28;20040;-71
2021/03/30 04:39:07;;;;;;;11.77;4.38;;;12.40;61.60;;;;;;5096382;28;20069;-71
2021/03/30 04:41:33;;;;;;;8.13;3.75;;;12.40;61.60;;;;;;5096165;28;20075;-71
2021/03/30 04:43:59;;;;;;;8.45;3.78;;;12.40;61.50;;;;;;5095575;28;20355;-71
2021/03/30 04:46:25;;;;;;;10.05;3.75;;;12.40;61.50;;;;;;5095555;28;20048;-71
2021/03/30 04:48:51;;;;;;;10.35;4.13;;;12.40;61.60;;;;;;5095617;28;20044;-71
2021/03/30 04:51:17;;;;;;;10.18;3.90;;;12.40;61.80;;;;;;5094570;28;20048;-71
2021/03/30 04:53:42;;;;;;;13.05;4.30;;;12.40;61.80;;;;;;5095992;28;20044;-71
2021/03/30 04:56:08;;;;;;;9.27;4.10;;;12.40;61.90;;;;;;5095359;28;20040;-72
2021/03/30 04:58:34;;;;;;;13.55;4.15;;;12.40;62.40;;;;;;5095793;28;20039;-71
2021/03/30 05:01:00;;;;;;;11.80;4.38;;;12.50;62.40;;;;;;5096106;28;20346;-72
2021/03/30 05:03:26;;;;;;;10.82;4.15;;;12.70;62.20;;;;;;5095233;28;20052;-71
2021/03/30 05:05:52;;;;;;;16.85;4.30;;;12.80;62.10;;;;;;5095207;28;20340;-75
2021/03/30 05:08:18;;;;;;;10.35;4.30;;;13.00;63.50;;;;;;5101414;28;20070;-72
2021/03/30 05:10:43;;;;;;;16.20;5.13;;;13.10;64.90;;;;;;5095541;28;20094;-72
2021/03/30 05:13:10;;;;;;;15.65;5.45;;;13.20;66.60;;;;;;5107486;28;20395;-73
2021/03/30 05:15:36;;;;;;;12.43;4.38;;;13.40;66.70;;;;;;5116217;28;20032;-73
2021/03/30 05:18:01;;;;;;;15.07;3.72;;;13.60;64.40;;;;;;5101099;28;20367;-71
2021/03/30 05:20:27;;;;;;;10.32;3.03;;;13.90;62.60;;;;;;5095519;28;20497;-73
2021/03/30 05:22:54;;;;;;;7.60;3.00;;;14.20;61.80;;;;;;5094848;28;20035;-72
2021/03/30 05:25:20;;;;;;;12.10;2.90;;;14.50;61.30;;;;;;5095499;28;20110;-72
2021/03/30 05:28:00;;;;;;;22.38;4.90;;;14.80;61.10;;;;;;5093415;28;20039;-72
2021/03/30 05:30:30;;;;;;;9.52;2.78;;;14.50;59.20;;;;;;5076654;28;20040;-74
2021/03/30 05:32:56;;;;;;;13.05;3.25;;;14.90;61.10;;;;;;5091356;28;20054;-74
2021/03/30 05:35:22;;;;;;;10.70;3.50;;;15.20;61.20;;;;;;5075350;28;20052;-75
2021/03/30 05:37:48;;;;;;;16.40;3.35;;;15.40;61.30;;;;;;5094059;28;20088;-73
2021/03/30 05:40:17;;;;;;;17.70;3.53;;;15.50;61.40;;;;;;5095111;28;20044;-75
2021/03/30 05:42:45;;;;;;;15.75;3.45;;;15.70;61.90;;;;;;5095185;28;20047;-78
2021/03/30 05:45:14;;;;;;;14.93;3.28;;;15.80;62.30;;;;;;5091392;28;20055;-77
2021/03/30 05:47:40;;;;;;;19.63;4.10;;;15.80;62.80;;;;;;5094074;28;20046;-73
2021/03/30 05:50:13;;;;;;;11.45;3.90;;;15.80;63.00;;;;;;5095306;28;20024;-73
2021/03/30 05:52:48;;;;;;;15.68;3.58;;;15.90;63.50;;;;;;5094171;28;20124;-75
2021/03/30 05:55:25;;;;;;;21.38;3.72;;;15.90;63.40;;;;;;5094435;28;20090;-76
2021/03/30 05:57:54;;;;;;;16.60;3.40;;;15.90;63.90;;;;;;5094659;28;20044;-75
2021/03/30 06:00:27;;;;;;;11.93;3.42;;;15.90;64.00;;;;;;5094781;28;20040;-79
2021/03/30 06:03:22;;;;;;;27.37;3.47;;;15.90;64.00;;;;;;5099280;28;20047;-78
2021/03/30 06:05:52;;;;;;;22.65;3.55;;;15.90;63.90;;;;;;5071738;28;20043;-75
2021/03/30 06:08:21;;;;;;;17.75;3.90;;;15.90;63.80;;;;;;5097353;28;20054;-76
2021/03/30 06:10:50;;;;;;;21.40;3.40;;;15.90;63.80;;;;;;5088902;28;20036;-74
2021/03/30 06:13:45;;;;;;;19.05;4.55;;;15.90;64.00;;;;;;5098572;28;20068;-74
2021/03/30 06:16:36;;;;;;;20.77;4.72;;;15.90;63.30;;;;;;5079555;28;20133;-75
2021/03/30 06:19:05;;;;;;;18.75;4.55;;;15.90;61.50;;;;;;5097876;28;20351;-72
2021/03/30 06:21:33;;;;;;;15.30;4.03;;;15.90;60.80;;;;;;5096432;28;20059;-74
2021/03/30 06:23:59;;;;;;;17.77;4.45;;;15.90;60.60;;;;;;5100736;28;20039;-79
2021/03/30 06:26:26;;;;;;;12.93;3.58;;;15.90;60.40;;;;;;5119317;28;20054;-75
2021/03/30 06:28:55;;;;;;;14.27;3.83;;;16.00;60.40;;;;;;5100713;28;20036;-78
2021/03/30 06:31:24;;;;;;;15.02;4.00;;;16.10;60.50;;;;;;5097326;28;20036;-74
2021/03/30 06:33:53;;;;;;;14.05;4.03;;;15.80;57.40;;;;;;5094211;28;20073;-71
2021/03/30 06:36:21;;;;;;;13.50;3.33;;;15.60;60.40;;;;;;5095305;28;20397;-76
2021/03/30 06:39:03;;;;;;;36.17;4.03;;;15.80;61.30;;;;;;5092362;28;20411;-75
2021/03/30 06:44:28;;;;;;;11.32;3.63;;;16.20;61.20;;;;;;5098190;28;20125;-74
2021/03/30 06:47:12;;;;;;;9.85;3.03;;;16.30;58.40;;;;;;5097180;28;20039;-74
2021/03/30 06:49:51;;;;;;;16.20;3.63;;;16.30;60.60;;;;;;5096912;28;20440;-75
2021/03/30 06:52:19;;;;;;;9.75;3.20;;;16.40;60.60;;;;;;5097603;28;20047;-75
2021/03/30 06:54:57;;;;;;;14.15;3.38;;;16.40;60.60;;;;;;5097573;28;20036;-75
2021/03/30 06:57:34;;;;;;;14.52;3.83;;;16.50;60.60;;;;;;5097297;28;20032;-75
2021/03/30 07:00:09;;;;;;;12.65;3.78;;;16.50;60.50;;;;;;5098218;28;20036;-73
2021/03/30 07:02:38;;;;;;;10.27;3.10;;;16.40;60.50;;;;;;5096754;28;20051;-76
2021/03/30 07:05:05;;;;;;;11.07;3.70;;;16.40;60.40;;;;;;5098000;28;20036;-74
2021/03/30 07:07:31;;;;;;;9.77;2.88;;;16.40;60.50;;;;;;5096241;28;20087;-76
2021/03/30 07:09:59;;;;;;;12.15;3.30;;;16.40;60.50;;;;;;5097373;28;20442;-77
2021/03/30 07:12:25;;;;;;;9.75;2.70;;;16.40;60.70;;;;;;5095500;28;20121;-78
2021/03/30 07:14:51;;;;;;;14.38;3.45;;;16.30;60.80;;;;;;5097117;28;20055;-71
2021/03/30 07:17:45;;;;;;;13.48;3.45;;;16.10;58.80;;;;;;5097378;28;20072;-78
2021/03/30 07:20:15;;;;;;;14.65;4.07;;;16.10;60.00;;;;;;5093522;28;20386;-77
2021/03/30 07:22:43;;;;;;;20.05;4.57;;;16.10;59.70;;;;;;5095427;28;20963;-78
2021/03/30 07:25:12;;;;;;;25.58;4.68;;;16.10;59.70;;;;;;5094253;28;20040;-77
2021/03/30 07:27:59;;;;;;;20.38;5.43;;;16.10;59.60;;;;;;5097611;28;20040;-76
2021/03/30 07:30:26;;;;;;;15.90;4.72;;;16.10;59.20;;;;;;5096163;28;20241;-76
2021/03/30 07:33:04;;;;;;;14.80;5.10;;;16.10;59.20;;;;;;5094126;28;20053;-74
2021/03/30 07:35:35;;;;;;;11.32;4.35;;;16.10;58.50;;;;;;5097805;28;20050;-75
2021/03/30 07:38:30;;;;;;;12.43;4.90;;;16.10;58.20;;;;;;5094986;28;20032;-75
2021/03/30 07:40:56;;;;;;;13.25;4.47;;;16.10;57.30;;;;;;5097167;28;20188;-74
2021/03/30 07:43:27;;;;;;;16.17;4.50;;;16.00;57.30;;;;;;5097515;28;20115;-75
2021/03/30 07:45:57;;;;;;;11.18;4.22;;;16.00;57.00;;;;;;5096791;28;20127;-74
2021/03/30 07:48:25;;;;;;;13.65;4.70;;;16.00;57.20;;;;;;5097076;28;20332;-73
2021/03/30 07:51:02;;;;;;;18.83;4.43;;;15.90;57.30;;;;;;5095661;28;20062;-74
2021/03/30 07:53:41;;;;;;;10.88;3.63;;;15.90;57.60;;;;;;5095890;28;20028;-75
2021/03/30 07:56:09;;;;;;;10.07;3.28;;;15.90;57.90;;;;;;5095941;28;20046;-80
2021/03/30 07:58:40;;;;;;;14.30;4.65;;;15.90;58.40;;;;;;5074642;28;20040;-80
2021/03/30 08:01:06;;;;;;;16.77;4.20;;;15.90;59.20;;;;;;5102031;28;20041;-76
2021/03/30 08:03:35;;;;;;;11.85;4.00;;;15.90;60.30;;;;;;5101593;28;20043;-74
2021/03/30 08:06:17;;;;;;;10.48;4.72;;;16.00;60.30;;;;;;5095719;28;20047;-78
2021/03/30 08:09:17;;;;;;;14.07;4.80;;;16.00;60.70;;;;;;5071187;28;20031;-87
2021/03/30 08:11:52;;;;;;;12.95;4.07;;;16.00;61.20;;;;;;5095503;28;20334;-84
2021/03/30 08:14:18;;;;;;;10.68;3.50;;;16.00;61.10;;;;;;5077946;28;20469;-76
2021/03/30 08:16:47;;;;;;;13.80;3.63;;;16.00;61.30;;;;;;5095911;28;20429;-75
2021/03/30 08:19:14;;;;;;;12.40;4.15;;;16.10;61.30;;;;;;5096535;28;20040;-74
2021/03/30 08:22:01;;;;;;;11.07;3.65;;;16.10;61.30;;;;;;5096032;28;20044;-73
2021/03/30 08:24:46;;;;;;;9.30;3.25;;;16.10;61.20;;;;;;5094448;28;20040;-74
2021/03/30 08:27:35;;;;;;;10.70;3.67;;;16.10;60.70;;;;;;5092976;28;20044;-76
2021/03/30 08:30:25;;;;;;;16.88;4.18;;;16.10;61.20;;;;;;5084345;28;20066;-79
2021/03/30 08:32:54;;;;;;;22.73;4.53;;;16.10;61.00;;;;;;5094806;28;20115;-77
2021/03/30 08:35:34;;;;;;;18.98;5.13;;;16.00;60.90;;;;;;5096137;28;20174;-72
2021/03/30 08:38:01;;;;;;;15.20;4.10;;;16.00;60.80;;;;;;5096060;28;20039;-72
2021/03/30 08:40:36;;;;;;;19.20;4.40;;;16.00;60.70;;;;;;5096056;28;20158;-77
2021/03/30 08:43:13;;;;;;;22.13;5.05;;;16.10;60.70;;;;;;5096094;28;20089;-77
2021/03/30 08:45:58;;;;;;;9.80;3.35;;;16.10;60.50;;;;;;5096025;28;20044;-77
2021/03/30 08:48:51;;;;;;;12.43;3.95;;;16.10;60.40;;;;;;5094293;28;20050;-74
2021/03/30 08:51:19;;;;;;;13.95;4.15;;;16.10;60.00;;;;;;5080446;28;20048;-73
2021/03/30 08:53:49;;;;;;;11.98;4.30;;;16.10;60.00;;;;;;5096526;28;20420;-73
2021/03/30 08:56:25;;;;;;;11.10;3.85;;;16.10;59.70;;;;;;5095672;28;20044;-75
2021/03/30 08:58:53;;;;;;;10.95;4.13;;;16.10;59.70;;;;;;5095451;28;20103;-77
2021/03/30 09:01:22;;;;;;;14.48;4.25;;;16.10;59.60;;;;;;5095786;28;20036;-76
2021/03/30 09:03:52;;;;;;;12.15;4.13;;;16.10;59.40;;;;;;5095780;28;20039;-76
2021/03/30 09:06:36;;;;;;;13.75;5.95;;;16.10;59.20;;;;;;5095322;28;20044;-75
2021/03/30 09:09:18;;;;;;;11.32;4.72;;;16.10;58.70;;;;;;5095507;28;20132;-76
2021/03/30 09:11:44;;;;;;;12.50;5.75;;;16.10;58.60;;;;;;5095418;28;20040;-75
2021/03/30 09:14:17;;;;;;;11.90;5.38;;;16.10;58.70;;;;;;5096091;28;20047;-76
2021/03/30 09:16:47;;;;;;;12.52;4.78;;;16.10;58.70;;;;;;5095638;28;20180;-76
2021/03/30 09:19:14;;;;;;;12.90;5.45;;;16.00;58.50;;;;;;5095375;28;20070;-75
2021/03/30 09:21:41;;;;;;;10.02;4.55;;;16.00;58.60;;;;;;5095822;28;20115;-76
2021/03/30 09:24:18;;;;;;;10.63;4.90;;;16.00;58.60;;;;;;5095011;28;20050;-76
2021/03/30 09:26:48;;;;;;;11.25;5.20;;;16.00;58.50;;;;;;5095158;28;20047;-75
2021/03/30 09:29:17;;;;;;;12.80;4.78;;;16.00;58.70;;;;;;5095573;28;20096;-75
2021/03/30 09:31:45;;;;;;;17.40;5.88;;;16.00;58.80;;;;;;5096318;28;20047;-76
2021/03/30 09:34:12;;;;;;;9.73;4.68;;;16.00;58.80;;;;;;5095169;28;20042;-76
2021/03/30 09:36:47;;;;;;;13.18;5.55;;;16.00;58.80;;;;;;5077202;28;20036;-75
2021/03/30 09:39:23;;;;;;;11.70;5.57;;;16.00;58.70;;;;;;5095171;28;20343;-76
2021/03/30 09:41:50;;;;;;;11.70;5.28;;;16.00;58.70;;;;;;5095034;28;20320;-75
2021/03/30 09:44:21;;;;;;;11.10;6.43;;;16.00;58.70;;;;;;5094576;28;20447;-75
2021/03/30 09:46:51;;;;;;;11.52;6.00;;;16.00;58.40;;;;;;5095185;28;20044;-75
2021/03/30 09:49:21;;;;;;;11.43;5.72;;;16.00;58.60;;;;;;5095068;28;20043;-76
2021/03/30 09:51:47;;;;;;;10.10;5.38;;;16.00;58.70;;;;;;5095055;28;20335;-76
2021/03/30 09:54:22;;;;;;;12.73;5.90;;;16.00;58.90;;;;;;5095361;28;20040;-75
2021/03/30 09:56:54;;;;;;;13.52;6.00;;;16.00;58.90;;;;;;5095282;28;20044;-76
2021/03/30 09:59:20;;;;;;;10.52;5.00;;;16.00;59.00;;;;;;5095055;28;20059;-76
2021/03/30 10:01:46;;;;;;;12.00;5.70;;;16.00;59.10;;;;;;5095715;28;20476;-76
2021/03/30 10:04:12;;;;;;;13.07;5.60;;;16.00;59.20;;;;;;5094316;28;20351;-76
2021/03/30 10:06:38;;;;;;;10.75;5.40;;;16.00;59.10;;;;;;5095443;28;20117;-75
2021/03/30 10:09:06;;;;;;;10.77;5.20;;;16.00;59.20;;;;;;5095367;28;20039;-76
2021/03/30 10:11:32;;;;;;;12.05;6.35;;;16.00;59.30;;;;;;5094827;28;20115;-77
2021/03/30 10:14:17;;;;;;;12.30;5.78;;;16.00;59.30;;;;;;5093931;28;20426;-72
2021/03/30 10:16:44;;;;;;;13.00;5.60;;;16.10;59.40;;;;;;5094586;28;20047;-75
2021/03/30 10:19:12;;;;;;;13.38;5.57;;;16.10;59.60;;;;;;5094933;28;20036;-76
2021/03/30 10:21:40;;;;;;;13.55;6.22;;;16.10;59.60;;;;;;5094777;28;20395;-77
2021/03/30 10:24:18;;;;;;;12.40;5.60;;;16.10;60.40;;;;;;5094855;28;20066;-79
2021/03/30 10:27:03;;;;;;;13.20;5.97;;;16.10;59.80;;;;;;5095145;28;20086;-75
2021/03/30 10:29:31;;;;;;;14.27;5.80;;;16.10;59.70;;;;;;5095120;28;20039;-72
2021/03/30 10:32:02;;;;;;;13.70;6.00;;;16.10;59.50;;;;;;5094780;28;20040;-73
2021/03/30 10:34:30;;;;;;;10.90;4.80;;;16.00;59.70;;;;;;5092965;28;20320;-76
2021/03/30 10:37:02;;;;;;;11.85;5.60;;;15.90;59.90;;;;;;5083965;28;20115;-75
2021/03/30 10:39:32;;;;;;;16.20;5.55;;;15.90;60.10;;;;;;5094703;28;20343;-73
2021/03/30 10:42:16;;;;;;;11.30;5.22;;;15.90;60.20;;;;;;5094781;28;20044;-73
2021/03/30 10:44:46;;;;;;;8.93;4.87;;;15.80;60.50;;;;;;5094273;28;20485;-76
2021/03/30 10:47:21;;;;;;;13.80;5.05;;;15.90;61.10;;;;;;5094730;28;20509;-75
2021/03/30 10:49:49;;;;;;;12.50;4.85;;;15.90;61.50;;;;;;5098121;28;20036;-74
2021/03/30 10:52:20;;;;;;;8.60;4.25;;;16.00;61.50;;;;;;5079938;28;20125;-73
2021/03/30 10:54:48;;;;;;;9.38;4.32;;;16.00;61.80;;;;;;5098770;28;20074;-73
2021/03/30 10:57:15;;;;;;;14.55;4.82;;;16.00;62.00;;;;;;5098535;28;20060;-74
2021/03/30 10:59:42;;;;;;;11.80;4.97;;;16.10;62.00;;;;;;5098337;28;20358;-74
2021/03/30 11:02:10;;;;;;;7.45;4.00;;;16.10;61.90;;;;;;5097839;28;20370;-77
2021/03/30 11:04:36;;;;;;;10.07;4.00;;;16.10;62.20;;;;;;5097974;28;20035;-77
2021/03/30 11:07:02;;;;;;;11.10;4.40;;;16.10;62.00;;;;;;5097801;28;20317;-76
2021/03/30 11:09:28;;;;;;;9.73;3.95;;;16.10;61.90;;;;;;5098755;28;20048;-77
2021/03/30 11:11:54;;;;;;;8.45;3.88;;;16.20;61.90;;;;;;5085032;28;20040;-76
2021/03/30 11:14:22;;;;;;;8.02;3.78;;;16.20;61.90;;;;;;5078542;28;20115;-76
2021/03/30 11:16:49;;;;;;;10.75;4.13;;;16.20;61.90;;;;;;5077315;28;20424;-76
2021/03/30 11:19:16;;;;;;;12.43;3.67;;;16.20;61.90;;;;;;5077535;28;20056;-77
2021/03/30 11:21:42;;;;;;;8.82;3.90;;;16.20;61.80;;;;;;5088451;28;20056;-75
2021/03/30 11:24:13;;;;;;;7.95;3.30;;;16.20;61.80;;;;;;5097677;28;20058;-75
2021/03/30 11:26:41;;;;;;;8.93;3.33;;;16.20;61.80;;;;;;5098064;28;20055;-75
2021/03/30 11:29:10;;;;;;;6.80;3.33;;;16.30;61.80;;;;;;5097433;28;20035;-75
2021/03/30 11:37:15;;;;;;;7.10;3.00;;;16.20;61.70;;;;;;5065846;28;20052;-78
2021/03/30 11:39:42;;;;;;;8.90;3.33;;;16.20;61.70;;;;;;5097136;28;20462;-74
2021/03/30 11:42:08;;;;;;;8.05;3.15;;;16.20;61.70;;;;;;5097139;28;20036;-76
2021/03/30 11:44:34;;;;;;;5.40;2.60;;;16.30;61.70;;;;;;5096934;28;20047;-75
2021/03/30 11:47:00;;;;;;;5.85;3.00;;;16.20;61.70;;;;;;5097683;28;20044;-78
2021/03/30 11:49:31;;;;;;;7.15;2.95;;;16.30;61.70;;;;;;5097460;28;20048;-74
2021/03/30 11:51:57;;;;;;;7.45;3.10;;;16.20;61.60;;;;;;5096963;28;20499;-77
2021/03/30 11:54:23;;;;;;;6.20;2.65;;;16.30;61.70;;;;;;5097029;28;20339;-75
2021/03/30 11:56:49;;;;;;;9.07;3.08;;;16.30;61.60;;;;;;5097022;28;20454;-75
2021/03/30 11:59:15;;;;;;;6.93;2.67;;;16.30;61.60;;;;;;5096745;28;20404;-76
2021/03/30 12:01:41;;;;;;;7.90;2.88;;;16.30;61.60;;;;;;5096559;28;20115;-74
2021/03/30 12:04:07;;;;;;;5.95;2.92;;;16.30;61.60;;;;;;5097013;28;20439;-76
2021/03/30 12:06:33;;;;;;;7.82;2.95;;;16.30;61.50;;;;;;5097070;28;20044;-76
2021/03/30 12:08:59;;;;;;;6.68;2.80;;;16.20;61.40;;;;;;5096850;28;20040;-76
2021/03/30 12:11:27;;;;;;;4.63;2.60;;;16.30;61.50;;;;;;5096549;28;20126;-75
2021/03/30 12:13:53;;;;;;;8.00;2.05;;;16.30;61.40;;;;;;5097173;28;20451;-74
2021/03/30 12:16:18;;;;;;;6.32;2.45;;;16.30;61.40;;;;;;5097022;28;20032;-75
2021/03/30 12:18:44;;;;;;;4.90;2.22;;;16.30;61.40;;;;;;5096830;28;20393;-76
2021/03/30 12:21:10;;;;;;;6.18;2.55;;;16.30;61.40;;;;;;5096314;28;20048;-77
2021/03/30 12:23:36;;;;;;;6.43;2.25;;;16.20;61.30;;;;;;5096855;28;20074;-77
2021/03/30 12:26:02;;;;;;;6.93;2.72;;;16.30;61.30;;;;;;5096553;28;20415;-76
2021/03/30 12:28:28;;;;;;;3.85;2.00;;;16.20;61.20;;;;;;5095934;28;20097;-75
2021/03/30 12:30:54;;;;;;;4.82;2.10;;;16.30;61.30;;;;;;5096500;28;20036;-76
2021/03/30 12:33:20;;;;;;;4.65;2.20;;;16.30;61.30;;;;;;5096245;28;20064;-76
2021/03/30 12:35:45;;;;;;;6.68;2.20;;;16.30;61.20;;;;;;5096431;28;20064;-74
2021/03/30 12:38:11;;;;;;;6.18;2.45;;;16.30;61.20;;;;;;5096234;28;20035;-74
2021/03/30 12:40:37;;;;;;;5.75;2.28;;;16.30;61.10;;;;;;5095923;28;20040;-75
2021/03/30 12:43:04;;;;;;;7.15;2.20;;;16.30;61.00;;;;;;5096321;28;20051;-77
2021/03/30 12:45:33;;;;;;;4.45;1.90;;;16.30;60.90;;;;;;5095766;28;20039;-78
2021/03/30 12:48:00;;;;;;;4.72;2.03;;;16.30;60.90;;;;;;5096020;28;20427;-76
2021/03/30 12:50:27;;;;;;;4.68;2.10;;;16.30;60.90;;;;;;5096391;28;20071;-75
2021/03/30 12:52:53;;;;;;;5.82;2.03;;;16.30;60.80;;;;;;5095787;28;20047;-74
2021/03/30 12:55:19;;;;;;;5.18;2.33;;;16.30;60.70;;;;;;5095764;28;20111;-77
2021/03/30 12:57:45;;;;;;;4.60;1.77;;;16.30;60.70;;;;;;5096128;28;20139;-75
2021/03/30 13:00:12;;;;;;;4.75;2.00;;;16.30;60.60;;;;;;5095809;28;20494;-75
2021/03/30 13:02:38;;;;;;;3.80;1.90;;;16.30;60.70;;;;;;5092713;28;20431;-75
2021/03/30 13:05:05;;;;;;;4.80;2.10;;;16.30;60.70;;;;;;5077539;28;20115;-76